UTDDUTAA

Guest
Details From UTDD - Dushanbe
To UTAA - Ashgabat
Flight Number -
Tags Generated
Created
Modified
Stats Distance 494 nm / 914 km
Max Altitude 0 ft / 0 m
Waypoints 3
Social Downloads 0
Likes 0
Share VATSIM

Download

Looking for another format? Having issues loading an existing format? Contact us
Advertisement - Login to hide

Notes

Generated

Route

UTDD ASB02 UTAA

ID Type Via Altitude Latitude Longitude Leg Dist Tot Dist Heading (true) Name
O UTDD APT - 0 ft / 0 m 38.54350˚ 68.80684˚ - 0 nm - -
ASB02 FIX - 0 ft / 0 m 37.98092˚ 58.39354˚ 491 nm 491 nm 269° / 263° -
O UTAA APT - 0 ft / 0 m 37.97802˚ 58.35791˚ 1 nm 493 nm 264° / 264° ASHGABAT

Altitude Profile

Advertisement - Login to hide

Weather


0- 5 10 15 20 25 30 35+ Temperature / ° C

Clouds and Precipitation
Forecast for 2017-12-17 12:00 UTC. Updated an hour ago

Ground ~20,000 ft ~40,000 ft Winds

UTDD

Details ICAO UTDD (DYU)
Name DUSHANBE
Region Tajikistan, Turkmenistan and Uzbekistan
Timezone Asia/Dushanbe (UTC+5.0)
Stats Elevation 2,575 ft / 785 m (AMSL)
Location 38.543486° 68.824637°
Runways 1
Magnetic Variation 4.445° E

METAR

UTDD 171230Z 09005MPS 8000 BKN120 09/M01 Q1026 R09/D NOSIG RMK QFE700/0934

Decode

TAF

TAF TAF UTDD 171200Z 1713/1801 VRB02MPS 6000 SCT066 BKN090 TEMPO 1713/1801 09006MPS 3000 BR FU

Decode

Departure Runways

ID Width Length Bearing (true) Bearing (mag) Surface Threshold Offset Overrun Length
09 147 ft / 45 m 10,157 ft / 3,096 m 90.06° 85.61° Asphalt 0 ft / 0 m 0 ft / 0 m
27 147 ft / 45 m 10,157 ft / 3,096 m 270.08° 265.63° Asphalt 1,335 ft / 407 m 0 ft / 0 m

UTAA

Details ICAO UTAA (ASB)
Name ASHGABAT
Region Tajikistan, Turkmenistan and Uzbekistan
Timezone Asia/Ashgabat (UTC+5.0)
Stats Elevation 692 ft / 211 m (AMSL)
Location 37.982867° 58.363112°
Runways 3
Magnetic Variation 4.998° E

METAR

UTAA 171200Z 03005KT 360V060 4600 HZ NSC 03/M03 Q1027 R88/70D NOSIG

Decode

TAF

TAF UTAA 171040Z 1712/1812 04012KT 3000 BR SCT008 530005 BECMG 1714/1716 2000 BR BKN005 BECMG 1719/1721 1000 BR BKN003 TEMPO 1723/1805 0300 FZFG VV002 BECMG 1806/1808 3000 BR BKN010

Decode

Destination Runways

ID Width Length Bearing (true) Bearing (mag) Surface Threshold Offset Overrun Length
11 114 ft / 35 m 5,898 ft / 1,798 m 112.14° 107.14° Asphalt 890 ft / 271 m 0 ft / 0 m
12L 151 ft / 46 m 12,446 ft / 3,794 m 119.49° 114.49° Concrete 0 ft / 0 m 190 ft / 58 m
12R 196 ft / 60 m 9,805 ft / 2,989 m 119.48° 114.48° Concrete 0 ft / 0 m 150 ft / 46 m
29 114 ft / 35 m 5,898 ft / 1,798 m 292.15° 287.15° Asphalt 1,965 ft / 599 m 0 ft / 0 m
30L 196 ft / 60 m 9,805 ft / 2,989 m 299.50° 294.50° Concrete 0 ft / 0 m 150 ft / 46 m
30R 151 ft / 46 m 12,446 ft / 3,794 m 299.51° 294.51° Concrete 0 ft / 0 m 190 ft / 58 m

Approach Navaids

Runway Type Ident Frequency Range Bearing (true) Bearing (mag) Slope Elevation
12L Localiser ABW 108.50 MHz 18 nm / 33 km 119.52° 114.52° - 692 ft / 211 m (AMSL)
30R Localiser AHD 108.70 MHz 18 nm / 33 km 299.50° 294.50° - 692 ft / 211 m (AMSL)